createdAt,value
2022-08-27T00:00:24.842Z,100575.13
2022-08-27T00:05:48.961Z,100575.42
2022-08-27T00:11:12.222Z,100571.03
2022-08-27T00:16:35.832Z,100568.77
2022-08-27T00:21:58.223Z,100575.91
2022-08-27T00:27:20.640Z,100571.73
2022-08-27T00:32:43.705Z,100564.77
2022-08-27T00:38:06.207Z,100551.84
2022-08-27T00:43:41.396Z,100560.50
2022-08-27T00:49:07.550Z,100568.03
2022-08-27T00:54:31.786Z,100568.03
2022-08-27T00:59:56.384Z,100562.58
2022-08-27T01:05:29.011Z,100559.73
2022-08-27T01:10:52.167Z,100566.41
2022-08-27T01:16:14.895Z,100561.34
2022-08-27T01:22:02.145Z,100560.37
2022-08-27T01:27:29.121Z,100558.55
2022-08-27T01:32:54.595Z,100565.23
2022-08-27T01:38:30.106Z,100565.95
2022-08-27T01:43:42.618Z,100578.53
2022-08-27T01:49:05.454Z,100567.53
2022-08-27T01:54:27.787Z,100564.48
2022-08-27T01:59:51.320Z,100575.97
2022-08-27T02:05:14.239Z,100571.73
2022-08-27T02:10:49.506Z,100570.75
2022-08-27T02:16:11.916Z,100576.23
2022-08-27T02:21:34.467Z,100570.78
2022-08-27T02:26:57.017Z,100563.38
2022-08-27T02:32:31.734Z,100576.19
2022-08-27T02:37:44.743Z,100571.80
2022-08-27T02:43:07.127Z,100572.55
2022-08-27T02:48:30.809Z,100567.61
2022-08-27T02:53:54.978Z,100565.44
2022-08-27T02:59:18.569Z,100563.37
2022-08-27T03:04:41.490Z,100563.91
2022-08-27T03:10:04.703Z,100564.41
2022-08-27T03:15:30.157Z,100562.23
2022-08-27T03:21:02.608Z,100557.47
2022-08-27T03:26:26.888Z,100557.67
2022-08-27T03:31:49.228Z,100554.29
2022-08-27T03:37:11.791Z,100557.72
2022-08-27T03:42:35.059Z,100545.28
2022-08-27T03:47:57.541Z,100543.41
2022-08-27T03:53:23.427Z,100543.77
2022-08-27T03:58:46.632Z,100551.57
2022-08-27T04:04:09.045Z,100555.67
2022-08-27T04:09:31.455Z,100558.39
2022-08-27T04:14:54.359Z,100555.48
2022-08-27T04:20:35.006Z,100560.08
2022-08-27T04:25:44.900Z,100560.40
2022-08-27T04:31:16.614Z,100560.57
2022-08-27T04:36:32.989Z,100567.34
2022-08-27T04:41:56.835Z,100562.52
2022-08-27T04:47:21.226Z,100564.48
2022-08-27T04:52:44.434Z,100559.44
2022-08-27T04:58:07.454Z,100566.84
2022-08-27T05:03:31.362Z,100572.44
2022-08-27T05:08:57.686Z,100568.53
2022-08-27T05:14:28.035Z,100565.67
2022-08-27T05:19:50.902Z,100567.67
2022-08-27T05:25:13.831Z,100565.73
2022-08-27T05:30:36.216Z,100570.28
2022-08-27T05:36:01.940Z,100572.45
2022-08-27T05:41:34.060Z,100572.52
2022-08-27T05:46:57.868Z,100587.22
2022-08-27T05:52:24.775Z,100586.11
2022-08-27T05:57:47.511Z,100577.66
2022-08-27T06:03:11.787Z,100582.38
2022-08-27T06:08:35.121Z,100572.80
2022-08-27T06:13:58.135Z,100579.03
2022-08-27T06:19:21.737Z,100569.02
2022-08-27T06:24:44.933Z,100574.00
2022-08-27T06:30:07.344Z,100574.11
2022-08-27T06:35:33.528Z,100570.25
2022-08-27T06:40:54.923Z,100566.86
2022-08-27T06:46:22.564Z,100563.19
2022-08-27T06:51:49.376Z,100559.44
2022-08-27T06:57:12.409Z,100563.02
2022-08-27T07:02:34.754Z,100563.09
2022-08-27T07:07:57.662Z,100561.26
2022-08-27T07:13:20.073Z,100559.20
2022-08-27T07:18:43.005Z,100559.70
2022-08-27T07:24:09.510Z,100559.92
2022-08-27T07:29:34.172Z,100571.76
2022-08-27T07:34:56.480Z,100567.97
2022-08-27T07:40:22.163Z,100566.05
2022-08-27T07:45:46.737Z,100565.87
2022-08-27T07:51:10.591Z,100567.08
2022-08-27T07:56:33.169Z,100561.97
2022-08-27T08:01:55.972Z,100567.41
2022-08-27T08:07:18.709Z,100566.27
2022-08-27T08:12:44.698Z,100561.44
2022-08-27T08:18:07.298Z,100555.14
2022-08-27T08:23:30.163Z,100556.81
2022-08-27T08:28:52.948Z,100549.86
2022-08-27T08:34:16.139Z,100557.12
2022-08-27T08:39:41.199Z,100545.87
2022-08-27T08:45:08.917Z,100551.71
2022-08-27T08:50:38.317Z,100549.20
2022-08-27T08:56:08.180Z,100541.64
2022-08-27T09:01:33.723Z,100536.88
2022-08-27T09:07:08.661Z,100541.69
2022-08-27T09:12:37.582Z,100544.38
2022-08-27T09:18:00.060Z,100536.45
2022-08-27T09:23:36.619Z,100528.94
2022-08-27T09:29:16.674Z,100532.05
2022-08-27T09:34:42.312Z,100535.20
2022-08-27T09:40:32.547Z,100526.38
2022-08-27T09:45:57.233Z,100525.58
2022-08-27T09:51:24.461Z,100533.38
2022-08-27T09:57:01.543Z,100535.03
2022-08-27T10:02:31.049Z,100526.79
2022-08-27T10:08:19.878Z,100525.77
2022-08-27T10:13:49.116Z,100516.09
2022-08-27T10:19:31.447Z,100515.81
2022-08-27T10:25:24.316Z,100509.89
2022-08-27T10:31:25.952Z,100506.44
2022-08-27T10:37:09.897Z,100508.88
2022-08-27T10:42:38.031Z,100508.30
2022-08-27T10:48:27.599Z,100493.08
2022-08-27T10:54:12.487Z,100491.88
2022-08-27T10:59:47.114Z,100493.03
2022-08-27T11:05:15.265Z,100491.13
2022-08-27T11:10:45.442Z,100493.38
2022-08-27T11:16:11.437Z,100494.46
2022-08-27T11:22:26.577Z,100489.73
2022-08-27T11:27:52.707Z,100490.30
2022-08-27T11:33:47.463Z,100487.26
2022-08-27T11:39:19.744Z,100490.05
2022-08-27T11:44:51.611Z,100475.05
2022-08-27T11:50:18.789Z,100471.75
2022-08-27T11:55:45.241Z,100470.30
2022-08-27T12:01:08.210Z,100455.82
2022-08-27T12:06:39.835Z,100469.91
2022-08-27T12:12:42.065Z,100462.89
2022-08-27T12:18:15.147Z,100453.28
2022-08-27T12:23:43.258Z,100455.78
2022-08-27T12:29:29.734Z,100439.08
2022-08-27T12:35:25.163Z,100440.10
2022-08-27T12:40:59.821Z,100432.72
2022-08-27T12:46:31.611Z,100440.79
2022-08-27T12:51:56.563Z,100434.20
2022-08-27T12:57:51.154Z,100424.89
2022-08-27T13:03:21.562Z,100418.92
2022-08-27T13:08:48.493Z,100419.23
2022-08-27T13:14:23.970Z,100411.09
2022-08-27T13:19:53.680Z,100414.03
2022-08-27T13:25:31.358Z,100409.94
2022-08-27T13:30:59.641Z,100408.66
2022-08-27T13:36:16.454Z,100413.95
2022-08-27T13:41:47.793Z,100402.11
2022-08-27T13:47:16.908Z,100400.67
2022-08-27T13:53:02.754Z,100403.02
2022-08-27T13:58:38.628Z,100396.28
2022-08-27T14:04:11.646Z,100391.75
2022-08-27T14:09:37.164Z,100393.72
2022-08-27T14:15:01.579Z,100389.36
2022-08-27T14:20:26.072Z,100397.50
2022-08-27T14:25:48.572Z,100390.84
2022-08-27T14:31:12.194Z,100385.05
2022-08-27T14:36:36.171Z,100382.41
2022-08-27T14:41:59.293Z,100387.55
2022-08-27T14:47:23.815Z,100389.20
2022-08-27T14:52:47.951Z,100385.89
2022-08-27T14:58:11.589Z,100384.55
2022-08-27T15:03:34.017Z,100370.25
2022-08-27T15:08:57.723Z,100384.20
2022-08-27T15:14:33.640Z,100375.58
2022-08-27T15:19:56.107Z,100369.39
2022-08-27T15:25:20.669Z,100368.80
2022-08-27T15:30:45.902Z,100363.80
2022-08-27T15:36:08.337Z,100365.69
2022-08-27T15:41:30.663Z,100362.03
2022-08-27T15:46:53.070Z,100362.27
2022-08-27T15:52:17.618Z,100357.41
2022-08-27T15:57:40.565Z,100359.32
2022-08-27T16:03:04.335Z,100351.69
2022-08-27T16:08:28.998Z,100356.02
2022-08-27T16:13:53.340Z,100357.13
2022-08-27T16:19:17.965Z,100358.80
2022-08-27T16:24:40.204Z,100357.54
2022-08-27T16:30:02.374Z,100365.38
2022-08-27T16:35:25.847Z,100364.55
2022-08-27T16:40:54.249Z,100363.98
2022-08-27T16:46:17.672Z,100367.87
2022-08-27T16:51:46.551Z,100367.75
2022-08-27T16:57:08.829Z,100366.80
2022-08-27T17:02:38.500Z,100365.65
2022-08-27T17:08:00.784Z,100365.97
2022-08-27T17:13:33.698Z,100366.61
2022-08-27T17:18:56.593Z,100364.48
2022-08-27T17:24:19.687Z,100363.46
2022-08-27T17:29:41.920Z,100378.25
2022-08-27T17:35:06.300Z,100379.97
2022-08-27T17:40:29.354Z,100386.12
2022-08-27T17:45:52.903Z,100398.53
2022-08-27T17:51:15.669Z,100398.34
2022-08-27T17:56:40.490Z,100399.24
2022-08-27T18:02:03.620Z,100407.99
2022-08-27T18:07:26.158Z,100416.91
2022-08-27T18:12:49.042Z,100414.11
2022-08-27T18:18:13.103Z,100421.62
2022-08-27T18:23:35.990Z,100429.56
2022-08-27T18:28:59.955Z,100434.50
2022-08-27T18:34:22.619Z,100438.79
2022-08-27T18:39:45.053Z,100441.15
2022-08-27T18:45:07.302Z,100444.31
2022-08-27T18:50:31.087Z,100449.00
2022-08-27T18:55:54.225Z,100450.72
2022-08-27T19:01:21.225Z,100450.74
2022-08-27T19:06:44.374Z,100451.11
2022-08-27T19:12:07.596Z,100448.35
2022-08-27T19:17:37.539Z,100450.03
2022-08-27T19:23:00.561Z,100457.17
2022-08-27T19:28:24.244Z,100445.36
2022-08-27T19:33:47.657Z,100446.02
2022-08-27T19:39:11.653Z,100444.26
2022-08-27T19:44:33.817Z,100447.71
2022-08-27T19:49:56.797Z,100442.36
2022-08-27T19:55:19.624Z,100452.56
2022-08-27T20:00:43.629Z,100449.61
2022-08-27T20:06:08.868Z,100452.78
2022-08-27T20:11:31.605Z,100459.12
2022-08-27T20:16:53.913Z,100452.23
2022-08-27T20:22:17.282Z,100454.89
2022-08-27T20:27:40.593Z,100457.86
2022-08-27T20:33:03.237Z,100466.38
2022-08-27T20:38:25.440Z,100462.57
2022-08-27T20:43:48.059Z,100468.39
2022-08-27T20:49:10.888Z,100463.91
2022-08-27T20:54:34.091Z,100467.85
2022-08-27T21:00:03.473Z,100468.05
2022-08-27T21:05:38.214Z,100458.95
2022-08-27T21:11:06.328Z,100457.81
2022-08-27T21:16:28.953Z,100461.19
2022-08-27T21:21:51.532Z,100454.48
2022-08-27T21:27:14.160Z,100455.34
2022-08-27T21:32:36.506Z,100448.73
2022-08-27T21:37:58.753Z,100453.55
2022-08-27T21:43:20.996Z,100454.59
2022-08-27T21:48:44.312Z,100450.85
2022-08-27T21:54:06.620Z,100454.02
2022-08-27T21:59:28.786Z,100459.57
2022-08-27T22:04:51.633Z,100461.16
2022-08-27T22:10:14.688Z,100444.59
2022-08-27T22:15:37.450Z,100446.09
2022-08-27T22:21:01.037Z,100442.33
2022-08-27T22:26:23.803Z,100439.28
2022-08-27T22:31:46.611Z,100442.37
2022-08-27T22:37:09.386Z,100445.40
2022-08-27T22:42:31.557Z,100454.70
2022-08-27T22:47:54.996Z,100446.58
2022-08-27T22:53:17.203Z,100440.61
2022-08-27T22:58:41.082Z,100436.76
2022-08-27T23:04:06.865Z,100437.79
2022-08-27T23:09:29.288Z,100434.92
2022-08-27T23:14:51.451Z,100429.23
2022-08-27T23:20:14.809Z,100431.95
2022-08-27T23:25:56.506Z,100426.94
2022-08-27T23:31:19.676Z,100432.63
2022-08-27T23:36:42.516Z,100432.25
2022-08-27T23:42:04.722Z,100431.59
2022-08-27T23:47:27.514Z,100432.80
2022-08-27T23:52:50.864Z,100435.02
2022-08-27T23:58:15.994Z,100433.87
